Latest METARs, TAFs and NOTAMs for LIRA


---------------------------------------------------------------------------
	(OBSERVATIONS)
LIRA 240950Z 31004KT 290V360 CAVOK 17/10 Q1022=
LIRA 240920Z 01003KT 320V060 CAVOK 16/10 Q1022=
LIRA 240850Z 04005KT 360V070 9000 NSC 16/10 Q1022=
LIRA 240820Z 02004KT 350V050 9000 NSC 14/10 Q1022=
LIRA 240750Z 35003KT 300V050 CAVOK 13/10 Q1022=
LIRA 240720Z 33004KT 310V030 7000 NSC 12/10 Q1022=
---------------------------------------------------------------------------
	(FC)
Sorry, FC For LIRA Not Found
---------------------------------------------------------------------------
	(TERMINAL AREA FORECAST)
LIRA 240500Z 2406/2506 VRB05KT 8000 SCT040=
---------------------------------------------------------------------------
	(NOTAMS)


LIRA A0574/17 REF AIP AD 2 LIRA 1-8 ITEM 18 'ATS COMMUNICATION
    FACILITIES' NEW ATIS EQPT INSTALLED WITH FLW CHARACTERISTICS:
    - COLUMN 1 'SERVICE': ATIS - COLUMN 2 'CALL SIGN': CIAMPINO
    ARRIVAL AND DEPARTURE INFORMATION - COLUMN 3 'FREQUENCY MHZ':
    122.425MHZ - COLUMN 4 'OPERATIONAL HOURS': H24 - COLUMN 5
    'REMARKS': 1)CIAMPINO ATIS BROADCAST MESSAGE ISSUES REAL
    TIME UPDATE INFORMATION 2)ATIS MESSAGE AVBL ON TEL: +390679086614.
    31 JAN 10:00 2017 UNTIL PERM. CREATED: 30 JAN 10:56 2017

LIRA A0816/17 ROMA/CIAMPINO AD: ACTIVATION ON TRIAL BASIS OF
    NOISE ABATEMENT ICP (INITIAL CLIMB PROCEDURE)/SID RWY15.
    SUP 12/14 IN FORCE SINCE 15 NOV 2014, END OF VALIDITY POSTPONED
    FROM 15 MAY 2015 TO 31 MAY 2017 EST. 07 FEB 10:45 2017 UNTIL
    07 MAY 23:59 2017 ESTIMATED. CREATED: 07 FEB 10:45 2017

LIRA A0819/17 REF AIP AD 2 LIRA 3-1 (AOC TYPE A) AND AOC TYPE
    B NR RA 4/3 ADD NEW OBSTACLE ACCORDING TO FOLLOWING DETAILS:
    - CRANE PENETRATING CURVED TOFPA (TAKE OFF FLIGHT PATH AREA)
    RWY15 AND INNER HORIZONTAL SURFACE. - PSN COORD (WGS-84)
    414556.6N 0123646.0E, 5157.5M AFTER THR15 AND 347.3M ON RIGHT
    SIDE FROM CENTRE LINE OF CURVED TOFPA RWY15 IN TAKE-OFF DIRECTION
    - MAX ELEV 17.5M/57.4FT AGL (186.0M/610.2FT AMSL) - ROTATING
    JIB 22.5M - ICAO SIGNAL UNPROVIDED. 23 FEB 00:00 2017 UNTIL
    PERM. CREATED: 07 FEB 10:53 2017

LIRA A0820/17 AIP PAGE AD 2 LIRA 6-1 'SID RWY 15' SUSPENDED.
    FOR SID RWY 15 REFER TO PAGE AD 2 LIRA 6-9 'SID RWY 15' (AIP
    SUP 12/2014 IN FORCE UNTIL 31 MAY 2017 EST. 07 FEB 11:35
    2017 UNTIL 07 MAY 23:59 2017 ESTIMATED. CREATED: 07 FEB 11:36
    2017

LIRA A1091/17 NEW EQUIPMENT DME INSTALLED ON TEST, DO NOT USE.
    CHARACTERISTICS: -IDENT 'TEST' -CH 42Y -PSN (WGS84) 414818.86N0123521.31E
    -DESIGNATED OPERATIONAL COVERAGE 25NM/10000FT REF AIP AD
    2 LIRA 1-8. 23 FEB 00:01 2017 UNTIL 20 MAY 23:59 2017 ESTIMATED.
    CREATED: 21 FEB 12:43 2017

LIRA A1092/17 REF AIP AD 2 LIRA 3-1 AND AOC TYPE B NR RA 4/3
    NEW OBSTACLES ERECTED POLE DME INSIDE STRIP RWY15/33 PSN
    292.5M AFTER THR15 112.1M RIGHT RCL ON TAKE-OFF DIRECTION
    COORD (WGS-84) 414818.9N 0123521.3E MAX ELEV AGL 6.0M/19.7FT
    MAX ELEV AMSL 113.9M/373.7FT ICAO SGL PROVIDED. 23 FEB 00:00
    2017 UNTIL PERM. CREATED: 21 FEB 12:46 2017

LIRA A1284/17 ROMA VOR/DME 'ROM' FREQ 110.80MHZ CH 45X REMOTE
    CONTROL NOT AVAILABLE. REF AIP AD 2 LIRA 1-10. 02 MAR 14:00
    2017 UNTIL 29 MAY 23:59 2017 ESTIMATED. CREATED: 02 MAR 14:00
    2017

LIRA A1495/17 USE OF RADAR IN AERODROME CONTROL SER IS IMPLEMENTED
    ON TRIAL BASIS FOR TRAINING PURPOSES, ACCORDING TO THE REGULATION
    PUBLISHED IN AIP ENR 1.6-2 REF AIP AD 2 LIRA 1-16. MAR 15-25
    0600-2200 AND 26-MAY 02 0500-2100, 15 MAR 06:00 2017 UNTIL
    02 MAY 21:00 2017. CREATED: 14 MAR 09:32 2017

LIRA A1505/17 REF AIP AD 2 LIRA 2-1 BOX ' BEARING STRENGTH' AND
    REF AIP AD 2 LIRA 1-6 ITEM 12 'RUNWAY PHYSICAL CHARACTERISTICS',
    COLUMN 4 'STRENGTH AND SURFACE OF RWY' TO READ: PCN/102/F/C/W/T
    BITUMINOUS CONGLOMERATE INSTEAD OF SIWL 35000 KG BITUMINOUS
    CONGLOMERATE. 14 MAR 10:56 2017 UNTIL PERM. CREATED: 14 MAR
    10:56 2017

LIRA A1594/17 RWY 15/33 CLOSED TO ALL TRAFFIC DUE TO WIP. RWY
    AVBL 30MIN PN. RMK: PRESENCE OF MEN AND EQPT IN RDO CTC WITH
    TWR. REF AIP AD 2 LIRA 2-1. DAILY 2300-0500, 20 MAR 23:00
    2017 UNTIL 25 MAR 05:00 2017. CREATED: 16 MAR 15:10 2017

LIRA A1598/17 TAX OPERATIONS SHALL BE PERFORMED WITH COMPULSORY
    USE OF FOLLOW-ME DUE TO WIP. REF AIP AD 2 LIRA 2-1. DAILY
    2300-0500, 20 MAR 23:00 2017 UNTIL 25 MAR 05:00 2017. CREATED:
    16 MAR 15:30 2017

LIRA A1600/17 TRIGGER NOTAM-PERM AIP AIRAC AMDT 3/17 EFFECTIVE
    DATE 27 APR 2017 - IMPLEMENTATION OF NEW INSTRUMENT APPROACH
    PROCEDURE 'RNAV A (CIRCLING) RWY 33' - VAC ROMA/CIAMPINO
    RWY 33 'PRESCRIBED TRACK FOR VISUAL MANOEUVRING TO RWY 33'
    UPDATED. AIRAC IS POSTED AND AVBL ON WEBSITE WWW.ENAV.IT.
    27 APR 00:00 2017 UNTIL 10 MAY 23:59 2017. CREATED: 16 MAR
    15:39 2017

LIRA A1823/17 AERODROME CLOSED TO VFR FLIGHTS DUE TO OVERFLYING
    RESTRICTION ANNOUNCED BY NOTAM W0650/17 TFC NOT AFFECTED:
    - STATE ACFT AUTHORIZED BY 'SALA OPERATIVA INTERMINISTERIALE'
    - STATE FLIGHT AUTHORIZED BY 'UFFICIO VOLI DI STATO' - EMERGENCY
    AND MEDICAL FLT REF AIP AD 2 LIRA 1-1. 24 MAR 08:22 2017
    UNTIL 25 MAR 22:00 2017. CREATED: 24 MAR 08:22 2017

LIRA A6615/06 APCH LGT SIMPLIFIED REDUCED SYSTEM RWY33 TYPE 'STROBE'
    INSTL ON FRANGIBLE SUPPORT AND AVBL WITH FLW CHARACTERISTICS:
    5 UNIDIRECTIONAL FLASHING, 2 TIMES PER SECOND, HIGHT INTST
    LGT ALONG EXTENSION RWY CL, FST LGT 56M FM THR33. SEQUENT
    LIGHTS 56M ONE FM EACH OTHER, TOTAL LENGHT 280M 2 UNIDIRECTIONAL
    FLASHING, 2 TIMES PER SECOND, HIGHT INTENSITY LGT, BOTH SIDE
    THR RWY33 DIST 12M. REF AIP AGA 2-39.5 29 DEC 18:09 2006
    UNTIL 29 JAN 23:59 ESTIMATED

LIRA A7867/16 REF AIP AD 2 LIRA 1-1 'OPERATIONAL HOURS' BOX 8
    'FUELLING' AND AD 2 LIRA 1-2 'HANDLING SERVICES AND FACILITIES'
    ROW 2 'FUEL/OIL' DELETE AVGAS 100LL. 08 NOV 10:03 2016 UNTIL
    PERM. CREATED: 08 NOV 10:03 2016

LIRA A7932/16 REF AOC TYPE B NR RA 4/3 NEW OBSTACLE ERECTED POLE
    PENETRATING CONICAL SURFACE PSN COORD (WGS84) 414838.3N 0123926.1E
    ELEV AGL 27.0M/88.6FT ELEV AMSL 237.0M/777.6FT ICAO SIGNAL
    UNPROVIDED. 10 NOV 14:14 2016 UNTIL PERM. CREATED: 10 NOV
    14:14 2016

LIRA F0015/07 [DEFENSE ENERGY SUPPORT CENTER ADVISORY] FUEL AVAILABILITY
    NOT AVAILABLE PHONE AHEAD FOR FUEL AVAILABILITY. 12 JUL 10:20
    2020 UNTIL 01 AUG 25:20 2020

---------------------------------------------------------------------------